createdAt,value
2022-12-06T00:00:01.269Z,1023.86
2022-12-06T00:10:01.559Z,1023.88
2022-12-06T00:20:01.538Z,1023.81
2022-12-06T00:30:00.418Z,1023.80
2022-12-06T00:40:02.286Z,1023.76
2022-12-06T00:50:00.399Z,1023.63
2022-12-06T01:00:01.541Z,1023.60
2022-12-06T01:10:01.657Z,1023.48
2022-12-06T01:20:01.849Z,1023.46
2022-12-06T01:30:00.353Z,1023.42
2022-12-06T01:40:01.921Z,1023.50
2022-12-06T01:50:01.468Z,1023.41
2022-12-06T02:00:01.453Z,1023.39
2022-12-06T02:10:01.344Z,1023.40
2022-12-06T02:20:01.387Z,1023.21
2022-12-06T02:30:01.737Z,1023.15
2022-12-06T02:40:02.767Z,1023.06
2022-12-06T02:50:02.267Z,1022.97
2022-12-06T03:00:02.063Z,1022.96
2022-12-06T03:10:01.679Z,1022.90
2022-12-06T03:20:01.451Z,1022.75
2022-12-06T03:30:01.642Z,1022.63
2022-12-06T03:40:01.590Z,1022.71
2022-12-06T03:50:01.567Z,1022.58
2022-12-06T04:00:01.451Z,1022.49
2022-12-06T04:10:01.514Z,1022.45
2022-12-06T04:20:01.465Z,1022.43
2022-12-06T04:30:01.395Z,1022.36
2022-12-06T04:40:00.548Z,1022.17
2022-12-06T04:50:01.524Z,1022.04
2022-12-06T05:00:01.373Z,1021.94
2022-12-06T05:10:01.169Z,1021.90
2022-12-06T05:20:02.429Z,1021.90
2022-12-06T05:30:01.783Z,1021.85
2022-12-06T05:40:02.128Z,1021.83
2022-12-06T05:50:00.497Z,1021.85
2022-12-06T06:00:01.272Z,1021.84
2022-12-06T06:10:01.261Z,1021.88
2022-12-06T06:20:01.488Z,1021.82
2022-12-06T06:30:01.592Z,1021.81
2022-12-06T06:40:00.465Z,1021.92
2022-12-06T06:50:00.452Z,1021.95
2022-12-06T07:00:01.614Z,1021.85
2022-12-06T07:10:00.345Z,1021.82
2022-12-06T07:20:02.852Z,1021.90
2022-12-06T07:30:00.455Z,1021.91
2022-12-06T07:40:01.711Z,1022.00
2022-12-06T07:50:01.618Z,1021.93
2022-12-06T08:00:01.357Z,1021.96
2022-12-06T08:10:01.507Z,1021.91
2022-12-06T08:20:02.049Z,1021.93
2022-12-06T08:30:01.803Z,1021.90
2022-12-06T08:40:01.239Z,1021.87
2022-12-06T08:50:01.728Z,1021.82
2022-12-06T09:00:01.666Z,1021.81
2022-12-06T09:10:01.605Z,1021.85
2022-12-06T09:20:05.735Z,1021.79
2022-12-06T09:30:02.281Z,1021.76
2022-12-06T09:40:00.388Z,1021.77
2022-12-06T09:50:03.435Z,1021.62
2022-12-06T10:00:01.525Z,1021.54
2022-12-06T10:10:00.594Z,1021.39
2022-12-06T10:20:00.543Z,1021.36
2022-12-06T10:30:01.449Z,1021.25
2022-12-06T10:40:01.403Z,1021.23
2022-12-06T10:50:01.318Z,1021.27
2022-12-06T11:00:03.582Z,1021.26
2022-12-06T11:10:01.978Z,1021.17
2022-12-06T11:20:01.741Z,1021.12
2022-12-06T11:30:00.586Z,1021.13
2022-12-06T11:40:03.507Z,1021.04
2022-12-06T11:50:06.225Z,1021.07
2022-12-06T12:00:01.423Z,1020.96
2022-12-06T12:10:01.094Z,1020.81
2022-12-06T12:20:01.450Z,1020.69
2022-12-06T12:30:01.568Z,1020.59
2022-12-06T12:40:03.722Z,1020.44
2022-12-06T12:50:01.769Z,1020.35
2022-12-06T13:00:01.350Z,1020.29
2022-12-06T13:10:00.121Z,1020.29
2022-12-06T13:20:03.084Z,1020.28
2022-12-06T13:30:03.778Z,1020.29
2022-12-06T13:40:01.638Z,1020.27
2022-12-06T13:50:01.640Z,1020.16
2022-12-06T14:00:05.271Z,1020.20
2022-12-06T14:10:01.824Z,1020.22
2022-12-06T14:20:01.659Z,1020.23
2022-12-06T14:30:00.435Z,1020.19
2022-12-06T14:40:16.651Z,1020.23
2022-12-06T14:50:03.221Z,1020.28
2022-12-06T15:00:20.640Z,1020.24
2022-12-06T15:10:02.466Z,1020.35
2022-12-06T15:20:01.925Z,1020.44
2022-12-06T15:30:02.323Z,1020.44
2022-12-06T15:40:02.601Z,1020.37
2022-12-06T15:50:05.050Z,1020.44
2022-12-06T16:00:01.276Z,1020.44
2022-12-06T16:10:02.125Z,1020.42
2022-12-06T16:20:01.529Z,1020.54
2022-12-06T16:30:01.297Z,1020.53
2022-12-06T16:40:01.271Z,1020.51
2022-12-06T16:50:01.087Z,1020.48
2022-12-06T17:00:01.598Z,1020.54
2022-12-06T17:10:01.599Z,1020.54
2022-12-06T17:20:01.305Z,1020.59
2022-12-06T17:30:01.521Z,1020.56
2022-12-06T17:40:01.041Z,1020.55
2022-12-06T17:50:02.335Z,1020.69
2022-12-06T18:10:01.916Z,1020.64
2022-12-06T18:20:01.539Z,1020.66
2022-12-06T18:30:02.044Z,1020.68
2022-12-06T18:40:01.733Z,1020.67
2022-12-06T18:50:01.438Z,1020.50
2022-12-06T19:00:01.610Z,1020.49
2022-12-06T19:10:01.557Z,1020.47
2022-12-06T19:20:02.106Z,1020.45
2022-12-06T19:30:01.367Z,1020.43
2022-12-06T19:40:01.528Z,1020.40
2022-12-06T19:50:01.254Z,1020.39
2022-12-06T20:00:01.782Z,1020.31
2022-12-06T20:10:01.535Z,1020.31
2022-12-06T20:20:01.642Z,1020.23
2022-12-06T20:30:01.865Z,1020.24
2022-12-06T20:40:03.135Z,1020.26
2022-12-06T20:50:01.933Z,1020.18
2022-12-06T21:00:07.220Z,1020.09
2022-12-06T21:10:01.798Z,1020.03
2022-12-06T21:20:01.567Z,1020.07
2022-12-06T21:30:01.384Z,1020.06
2022-12-06T21:40:01.498Z,1020.10
2022-12-06T21:50:03.148Z,1020.03
2022-12-06T22:00:01.733Z,1020.10
2022-12-06T22:10:01.604Z,1020.07
2022-12-06T22:20:01.483Z,1020.07
2022-12-06T22:30:00.469Z,1019.95
2022-12-06T22:40:01.868Z,1019.93
2022-12-06T22:50:01.232Z,1019.79
2022-12-06T23:00:01.305Z,1019.79
2022-12-06T23:10:00.476Z,1019.75
2022-12-06T23:20:01.684Z,1019.61
2022-12-06T23:30:03.741Z,1019.66
2022-12-06T23:40:03.468Z,1019.63
2022-12-06T23:50:01.281Z,1019.56
